NOZ238 ENBR-ENGM
Flight info
| Callsign | NOZ238 |
|---|---|
| Flight time | N/A |
| Altitude | 24000 |
| Route | GOKAB DCT ULVAN DCT ADOPI |
| Aircraft | B38M/M-SDE1FGHILORVWXY/HB1 |
Departure
| Time | 2026-05-06 14:57 |
|---|---|
| Airport | Bergen Airport, Flesland (ENBR) |
Arrival
| Time | N/A |
|---|---|
| Airport | Oslo-Gardermoen International Airport (ENGM) |
| Time | Latitude | Longitude | Altitude | Speed | Heading |
|---|---|---|---|---|---|
| 2026-05-06 14:37 | 60.29004 | 5.22708 | 152 ft | 0 kts | 210° |
| 2026-05-06 14:44 | 60.29004 | 5.22709 | 152 ft | 2 kts | 210° |
| 2026-05-06 14:44 | 60.29018 | 5.22734 | 152 ft | 3 kts | 265° |
| 2026-05-06 14:45 | 60.29016 | 5.22758 | 152 ft | 0 kts | 303° |
| 2026-05-06 14:49 | 60.29032 | 5.22725 | 152 ft | 6 kts | 318° |
| 2026-05-06 14:50 | 60.29050 | 5.22667 | 152 ft | 4 kts | 283° |
| 2026-05-06 14:50 | 60.29043 | 5.22548 | 152 ft | 12 kts | 259° |
| 2026-05-06 14:50 | 60.29050 | 5.22379 | 153 ft | 13 kts | 297° |
| 2026-05-06 14:50 | 60.29110 | 5.22232 | 153 ft | 14 kts | 331° |
| 2026-05-06 14:51 | 60.29211 | 5.22182 | 154 ft | 17 kts | 349° |
| 2026-05-06 14:51 | 60.29343 | 5.22132 | 155 ft | 20 kts | 350° |
| 2026-05-06 14:51 | 60.29496 | 5.22085 | 157 ft | 24 kts | 351° |
| 2026-05-06 14:51 | 60.29673 | 5.22024 | 158 ft | 28 kts | 351° |
| 2026-05-06 14:52 | 60.29874 | 5.21956 | 160 ft | 28 kts | 350° |
| 2026-05-06 14:52 | 60.30056 | 5.21895 | 161 ft | 25 kts | 350° |
| 2026-05-06 14:52 | 60.30223 | 5.21841 | 163 ft | 23 kts | 351° |
| 2026-05-06 14:52 | 60.30374 | 5.21790 | 164 ft | 20 kts | 352° |
| 2026-05-06 14:53 | 60.30450 | 5.21714 | 165 ft | 4 kts | 275° |
| 2026-05-06 14:53 | 60.30446 | 5.21682 | 165 ft | 2 kts | 253° |
| 2026-05-06 14:53 | 60.30445 | 5.21676 | 165 ft | 2 kts | 253° |
| 2026-05-06 14:54 | 60.30442 | 5.21659 | 165 ft | 2 kts | 253° |
| 2026-05-06 14:54 | 60.30435 | 5.21607 | 164 ft | 7 kts | 252° |
| 2026-05-06 14:54 | 60.30403 | 5.21479 | 163 ft | 10 kts | 214° |
| 2026-05-06 14:55 | 60.30351 | 5.21467 | 162 ft | 6 kts | 163° |
| 2026-05-06 14:55 | 60.30321 | 5.21487 | 161 ft | 0 kts | 168° |
| 2026-05-06 14:56 | 60.30314 | 5.21490 | 161 ft | 2 kts | 168° |
| 2026-05-06 14:56 | 60.30265 | 5.21509 | 161 ft | 22 kts | 171° |
| 2026-05-06 14:56 | 60.29895 | 5.21618 | 162 ft | 89 kts | 171° |
| 2026-05-06 14:56 | 60.29063 | 5.21905 | 153 ft | 145 kts | 176° |
| 2026-05-06 14:57 | 60.27950 | 5.22377 | 167 ft | 181 kts | 172° |
| 2026-05-06 14:57 | 60.26554 | 5.22874 | 1207 ft | 273 kts | 171° |
| 2026-05-06 14:57 | 60.24491 | 5.23627 | 1338 ft | 303 kts | 171° |
| 2026-05-06 14:57 | 60.22387 | 5.24351 | 1363 ft | 298 kts | 171° |
| 2026-05-06 14:58 | 60.20420 | 5.25071 | 1602 ft | 284 kts | 170° |